sensor_id;sensor_type;location;lat;lon;timestamp;P1;durP1;ratioP1;P2;durP2;ratioP2
17265;SDS011;8749;47.076;15.412;2022-10-16T00:01:55;61.97;;;35.78;;
17265;SDS011;8749;47.076;15.412;2022-10-16T00:04:23;57.97;;;34.92;;
17265;SDS011;8749;47.076;15.412;2022-10-16T00:06:50;56.53;;;35.70;;
17265;SDS011;8749;47.076;15.412;2022-10-16T00:09:17;61.42;;;35.75;;
17265;SDS011;8749;47.076;15.412;2022-10-16T00:11:44;63.70;;;36.45;;
17265;SDS011;8749;47.076;15.412;2022-10-16T00:14:12;57.58;;;35.22;;
17265;SDS011;8749;47.076;15.412;2022-10-16T00:16:40;59.30;;;35.90;;
17265;SDS011;8749;47.076;15.412;2022-10-16T00:19:08;59.50;;;36.42;;
17265;SDS011;8749;47.076;15.412;2022-10-16T00:21:38;57.88;;;36.67;;
17265;SDS011;8749;47.076;15.412;2022-10-16T00:24:05;62.00;;;39.60;;
17265;SDS011;8749;47.076;15.412;2022-10-16T00:26:34;58.55;;;36.65;;
17265;SDS011;8749;47.076;15.412;2022-10-16T00:29:02;60.83;;;37.47;;
17265;SDS011;8749;47.076;15.412;2022-10-16T00:31:30;61.03;;;38.22;;
17265;SDS011;8749;47.076;15.412;2022-10-16T00:33:57;58.78;;;37.25;;
17265;SDS011;8749;47.076;15.412;2022-10-16T00:36:25;56.88;;;37.78;;
17265;SDS011;8749;47.076;15.412;2022-10-16T00:38:55;61.78;;;37.80;;
17265;SDS011;8749;47.076;15.412;2022-10-16T00:41:25;57.25;;;37.35;;
17265;SDS011;8749;47.076;15.412;2022-10-16T00:43:53;59.13;;;37.08;;
17265;SDS011;8749;47.076;15.412;2022-10-16T00:46:22;59.58;;;37.22;;
17265;SDS011;8749;47.076;15.412;2022-10-16T00:48:52;91.03;;;53.80;;
17265;SDS011;8749;47.076;15.412;2022-10-16T00:51:25;67.45;;;42.78;;
17265;SDS011;8749;47.076;15.412;2022-10-16T00:53:57;61.30;;;37.67;;
17265;SDS011;8749;47.076;15.412;2022-10-16T00:56:25;61.63;;;38.38;;
17265;SDS011;8749;47.076;15.412;2022-10-16T00:58:53;59.85;;;38.00;;
17265;SDS011;8749;47.076;15.412;2022-10-16T01:01:20;56.72;;;36.67;;
17265;SDS011;8749;47.076;15.412;2022-10-16T01:03:47;61.35;;;36.60;;
17265;SDS011;8749;47.076;15.412;2022-10-16T01:06:19;55.85;;;35.92;;
17265;SDS011;8749;47.076;15.412;2022-10-16T01:08:54;55.25;;;35.88;;
17265;SDS011;8749;47.076;15.412;2022-10-16T01:11:38;60.95;;;36.75;;
17265;SDS011;8749;47.076;15.412;2022-10-16T01:14:12;59.00;;;36.50;;
17265;SDS011;8749;47.076;15.412;2022-10-16T01:16:46;59.00;;;36.97;;
17265;SDS011;8749;47.076;15.412;2022-10-16T01:19:22;59.35;;;37.00;;
17265;SDS011;8749;47.076;15.412;2022-10-16T01:22:01;58.88;;;35.97;;
17265;SDS011;8749;47.076;15.412;2022-10-16T01:24:33;57.40;;;36.33;;
17265;SDS011;8749;47.076;15.412;2022-10-16T01:27:08;58.38;;;37.10;;
17265;SDS011;8749;47.076;15.412;2022-10-16T01:29:37;59.53;;;37.30;;
17265;SDS011;8749;47.076;15.412;2022-10-16T01:32:10;57.63;;;36.22;;
17265;SDS011;8749;47.076;15.412;2022-10-16T01:34:44;53.63;;;35.80;;
17265;SDS011;8749;47.076;15.412;2022-10-16T01:37:16;53.97;;;34.65;;
17265;SDS011;8749;47.076;15.412;2022-10-16T01:39:48;51.45;;;33.65;;
17265;SDS011;8749;47.076;15.412;2022-10-16T01:42:21;55.05;;;33.33;;
17265;SDS011;8749;47.076;15.412;2022-10-16T01:44:50;53.25;;;33.97;;
17265;SDS011;8749;47.076;15.412;2022-10-16T01:47:20;54.30;;;34.28;;
17265;SDS011;8749;47.076;15.412;2022-10-16T01:49:51;51.63;;;33.63;;
17265;SDS011;8749;47.076;15.412;2022-10-16T01:52:22;50.03;;;31.67;;
17265;SDS011;8749;47.076;15.412;2022-10-16T01:54:52;50.05;;;33.72;;
17265;SDS011;8749;47.076;15.412;2022-10-16T01:57:23;50.13;;;32.28;;
17265;SDS011;8749;47.076;15.412;2022-10-16T01:59:52;55.45;;;34.03;;
17265;SDS011;8749;47.076;15.412;2022-10-16T02:02:22;52.17;;;33.47;;
17265;SDS011;8749;47.076;15.412;2022-10-16T02:04:53;55.10;;;33.90;;
17265;SDS011;8749;47.076;15.412;2022-10-16T02:07:24;51.13;;;33.17;;
17265;SDS011;8749;47.076;15.412;2022-10-16T02:09:51;53.17;;;33.35;;
17265;SDS011;8749;47.076;15.412;2022-10-16T02:12:19;52.10;;;33.95;;
17265;SDS011;8749;47.076;15.412;2022-10-16T02:14:52;55.97;;;34.15;;
17265;SDS011;8749;47.076;15.412;2022-10-16T02:17:20;50.35;;;33.33;;
17265;SDS011;8749;47.076;15.412;2022-10-16T02:19:48;51.47;;;33.75;;
17265;SDS011;8749;47.076;15.412;2022-10-16T02:22:18;52.95;;;33.00;;
17265;SDS011;8749;47.076;15.412;2022-10-16T02:24:52;49.03;;;33.15;;
17265;SDS011;8749;47.076;15.412;2022-10-16T02:27:25;48.38;;;31.70;;
17265;SDS011;8749;47.076;15.412;2022-10-16T02:29:56;49.03;;;32.85;;
17265;SDS011;8749;47.076;15.412;2022-10-16T02:32:32;51.45;;;33.33;;
17265;SDS011;8749;47.076;15.412;2022-10-16T02:35:02;52.53;;;33.50;;
17265;SDS011;8749;47.076;15.412;2022-10-16T02:37:29;52.03;;;32.95;;
17265;SDS011;8749;47.076;15.412;2022-10-16T02:39:58;52.50;;;35.03;;
17265;SDS011;8749;47.076;15.412;2022-10-16T02:42:32;50.88;;;33.10;;
17265;SDS011;8749;47.076;15.412;2022-10-16T02:45:00;54.97;;;35.20;;
17265;SDS011;8749;47.076;15.412;2022-10-16T02:47:28;54.03;;;35.47;;
17265;SDS011;8749;47.076;15.412;2022-10-16T02:49:55;56.55;;;34.97;;
17265;SDS011;8749;47.076;15.412;2022-10-16T02:52:22;55.80;;;35.38;;
17265;SDS011;8749;47.076;15.412;2022-10-16T02:54:49;60.92;;;37.05;;
17265;SDS011;8749;47.076;15.412;2022-10-16T02:57:16;52.00;;;34.85;;
17265;SDS011;8749;47.076;15.412;2022-10-16T02:59:45;55.40;;;35.70;;
17265;SDS011;8749;47.076;15.412;2022-10-16T03:02:12;64.13;;;37.80;;
17265;SDS011;8749;47.076;15.412;2022-10-16T03:04:39;69.30;;;39.50;;
17265;SDS011;8749;47.076;15.412;2022-10-16T03:07:06;64.97;;;39.55;;
17265;SDS011;8749;47.076;15.412;2022-10-16T03:09:33;71.13;;;41.40;;
17265;SDS011;8749;47.076;15.412;2022-10-16T03:12:00;130.98;;;44.83;;
17265;SDS011;8749;47.076;15.412;2022-10-16T03:14:27;73.78;;;44.63;;
17265;SDS011;8749;47.076;15.412;2022-10-16T03:16:56;70.35;;;43.22;;
17265;SDS011;8749;47.076;15.412;2022-10-16T03:19:23;71.97;;;42.35;;
17265;SDS011;8749;47.076;15.412;2022-10-16T03:21:50;68.30;;;42.38;;
17265;SDS011;8749;47.076;15.412;2022-10-16T03:24:17;70.80;;;41.45;;
17265;SDS011;8749;47.076;15.412;2022-10-16T03:26:43;72.20;;;42.33;;
17265;SDS011;8749;47.076;15.412;2022-10-16T03:29:11;74.70;;;44.00;;
17265;SDS011;8749;47.076;15.412;2022-10-16T03:31:38;75.95;;;42.17;;
17265;SDS011;8749;47.076;15.412;2022-10-16T03:34:06;70.32;;;42.70;;
17265;SDS011;8749;47.076;15.412;2022-10-16T03:36:33;76.97;;;44.10;;
17265;SDS011;8749;47.076;15.412;2022-10-16T03:39:00;74.30;;;43.35;;
17265;SDS011;8749;47.076;15.412;2022-10-16T03:41:27;74.78;;;42.90;;
17265;SDS011;8749;47.076;15.412;2022-10-16T03:43:54;70.97;;;42.38;;
17265;SDS011;8749;47.076;15.412;2022-10-16T03:46:21;68.50;;;41.65;;
17265;SDS011;8749;47.076;15.412;2022-10-16T03:48:48;73.35;;;41.53;;
17265;SDS011;8749;47.076;15.412;2022-10-16T03:51:16;72.10;;;42.33;;
17265;SDS011;8749;47.076;15.412;2022-10-16T03:53:43;68.18;;;40.88;;
17265;SDS011;8749;47.076;15.412;2022-10-16T03:56:10;64.13;;;39.75;;
17265;SDS011;8749;47.076;15.412;2022-10-16T03:58:37;66.53;;;40.60;;
17265;SDS011;8749;47.076;15.412;2022-10-16T04:01:04;70.30;;;38.55;;
17265;SDS011;8749;47.076;15.412;2022-10-16T04:03:31;62.58;;;37.08;;
17265;SDS011;8749;47.076;15.412;2022-10-16T04:05:58;61.33;;;37.45;;
17265;SDS011;8749;47.076;15.412;2022-10-16T04:08:26;59.10;;;36.30;;
17265;SDS011;8749;47.076;15.412;2022-10-16T04:10:54;56.88;;;35.85;;
17265;SDS011;8749;47.076;15.412;2022-10-16T04:13:21;58.90;;;35.65;;
17265;SDS011;8749;47.076;15.412;2022-10-16T04:15:48;57.22;;;34.72;;
17265;SDS011;8749;47.076;15.412;2022-10-16T04:18:14;56.17;;;35.00;;
17265;SDS011;8749;47.076;15.412;2022-10-16T04:20:41;59.47;;;35.10;;
17265;SDS011;8749;47.076;15.412;2022-10-16T04:23:08;54.63;;;34.85;;
17265;SDS011;8749;47.076;15.412;2022-10-16T04:25:37;56.05;;;34.20;;
17265;SDS011;8749;47.076;15.412;2022-10-16T04:28:04;58.90;;;34.60;;
17265;SDS011;8749;47.076;15.412;2022-10-16T04:30:31;56.80;;;34.30;;
17265;SDS011;8749;47.076;15.412;2022-10-16T04:32:58;65.32;;;38.72;;
17265;SDS011;8749;47.076;15.412;2022-10-16T04:35:25;64.07;;;37.78;;
17265;SDS011;8749;47.076;15.412;2022-10-16T04:37:52;60.08;;;37.38;;
17265;SDS011;8749;47.076;15.412;2022-10-16T04:40:19;61.85;;;38.13;;
17265;SDS011;8749;47.076;15.412;2022-10-16T04:42:47;61.25;;;36.30;;
17265;SDS011;8749;47.076;15.412;2022-10-16T04:45:14;58.88;;;37.75;;
17265;SDS011;8749;47.076;15.412;2022-10-16T04:47:42;63.10;;;38.35;;
17265;SDS011;8749;47.076;15.412;2022-10-16T04:50:09;62.22;;;37.85;;
17265;SDS011;8749;47.076;15.412;2022-10-16T04:52:35;63.53;;;37.75;;
17265;SDS011;8749;47.076;15.412;2022-10-16T04:55:03;64.38;;;38.10;;
17265;SDS011;8749;47.076;15.412;2022-10-16T04:57:30;62.17;;;37.22;;
17265;SDS011;8749;47.076;15.412;2022-10-16T04:59:59;62.70;;;38.42;;
17265;SDS011;8749;47.076;15.412;2022-10-16T05:02:28;61.80;;;38.17;;
17265;SDS011;8749;47.076;15.412;2022-10-16T05:04:55;64.65;;;39.10;;
17265;SDS011;8749;47.076;15.412;2022-10-16T05:07:21;68.07;;;38.28;;
17265;SDS011;8749;47.076;15.412;2022-10-16T05:09:48;75.22;;;44.72;;
17265;SDS011;8749;47.076;15.412;2022-10-16T05:12:15;88.55;;;51.53;;
17265;SDS011;8749;47.076;15.412;2022-10-16T05:14:42;75.70;;;45.55;;
17265;SDS011;8749;47.076;15.412;2022-10-16T05:17:11;72.22;;;41.88;;
17265;SDS011;8749;47.076;15.412;2022-10-16T05:19:37;70.00;;;41.55;;
17265;SDS011;8749;47.076;15.412;2022-10-16T05:22:04;70.72;;;41.88;;
17265;SDS011;8749;47.076;15.412;2022-10-16T05:24:31;70.05;;;40.33;;
17265;SDS011;8749;47.076;15.412;2022-10-16T05:26:58;67.97;;;40.28;;
17265;SDS011;8749;47.076;15.412;2022-10-16T05:29:25;64.72;;;39.40;;
17265;SDS011;8749;47.076;15.412;2022-10-16T05:31:52;62.65;;;39.10;;
17265;SDS011;8749;47.076;15.412;2022-10-16T05:34:21;64.10;;;38.13;;
17265;SDS011;8749;47.076;15.412;2022-10-16T05:36:48;65.43;;;40.35;;
17265;SDS011;8749;47.076;15.412;2022-10-16T05:39:15;73.72;;;47.33;;
17265;SDS011;8749;47.076;15.412;2022-10-16T05:41:42;66.97;;;43.15;;
17265;SDS011;8749;47.076;15.412;2022-10-16T05:44:09;53.17;;;35.88;;
17265;SDS011;8749;47.076;15.412;2022-10-16T05:46:37;52.88;;;34.83;;
17265;SDS011;8749;47.076;15.412;2022-10-16T05:49:04;47.20;;;33.85;;
17265;SDS011;8749;47.076;15.412;2022-10-16T05:51:32;43.65;;;30.67;;
17265;SDS011;8749;47.076;15.412;2022-10-16T05:53:59;43.28;;;31.70;;
17265;SDS011;8749;47.076;15.412;2022-10-16T05:56:26;43.60;;;32.42;;
17265;SDS011;8749;47.076;15.412;2022-10-16T05:58:53;44.97;;;31.50;;
17265;SDS011;8749;47.076;15.412;2022-10-16T06:01:20;49.72;;;34.17;;
17265;SDS011;8749;47.076;15.412;2022-10-16T06:03:49;48.35;;;32.17;;
17265;SDS011;8749;47.076;15.412;2022-10-16T06:06:17;43.95;;;31.08;;
17265;SDS011;8749;47.076;15.412;2022-10-16T06:08:47;45.35;;;32.50;;
17265;SDS011;8749;47.076;15.412;2022-10-16T06:11:17;47.72;;;32.65;;
17265;SDS011;8749;47.076;15.412;2022-10-16T06:13:48;48.80;;;34.25;;
17265;SDS011;8749;47.076;15.412;2022-10-16T06:16:15;46.00;;;33.33;;
17265;SDS011;8749;47.076;15.412;2022-10-16T06:18:42;50.63;;;35.40;;
17265;SDS011;8749;47.076;15.412;2022-10-16T06:21:10;52.90;;;35.28;;
17265;SDS011;8749;47.076;15.412;2022-10-16T06:23:40;454.27;;;332.58;;
17265;SDS011;8749;47.076;15.412;2022-10-16T06:26:08;632.17;;;387.00;;
17265;SDS011;8749;47.076;15.412;2022-10-16T06:28:37;204.98;;;119.22;;
17265;SDS011;8749;47.076;15.412;2022-10-16T06:31:05;78.25;;;49.63;;
17265;SDS011;8749;47.076;15.412;2022-10-16T06:33:33;57.50;;;38.67;;
17265;SDS011;8749;47.076;15.412;2022-10-16T06:36:01;54.30;;;35.70;;
17265;SDS011;8749;47.076;15.412;2022-10-16T06:38:28;48.83;;;34.33;;
17265;SDS011;8749;47.076;15.412;2022-10-16T06:40:55;60.17;;;39.78;;
17265;SDS011;8749;47.076;15.412;2022-10-16T06:43:24;54.83;;;36.25;;
17265;SDS011;8749;47.076;15.412;2022-10-16T06:45:52;53.22;;;35.53;;
17265;SDS011;8749;47.076;15.412;2022-10-16T06:48:19;48.63;;;33.63;;
17265;SDS011;8749;47.076;15.412;2022-10-16T06:50:54;49.22;;;34.35;;
17265;SDS011;8749;47.076;15.412;2022-10-16T06:53:23;52.17;;;35.53;;
17265;SDS011;8749;47.076;15.412;2022-10-16T06:55:50;56.38;;;37.45;;
17265;SDS011;8749;47.076;15.412;2022-10-16T06:58:17;55.67;;;37.75;;
17265;SDS011;8749;47.076;15.412;2022-10-16T07:00:45;54.60;;;37.17;;
17265;SDS011;8749;47.076;15.412;2022-10-16T07:03:12;59.53;;;41.45;;
17265;SDS011;8749;47.076;15.412;2022-10-16T07:05:40;67.75;;;43.40;;
17265;SDS011;8749;47.076;15.412;2022-10-16T07:08:07;67.57;;;43.95;;
17265;SDS011;8749;47.076;15.412;2022-10-16T07:10:34;66.68;;;43.28;;
17265;SDS011;8749;47.076;15.412;2022-10-16T07:13:01;81.13;;;49.78;;
17265;SDS011;8749;47.076;15.412;2022-10-16T07:15:29;66.53;;;43.03;;
17265;SDS011;8749;47.076;15.412;2022-10-16T07:17:57;52.85;;;34.97;;
17265;SDS011;8749;47.076;15.412;2022-10-16T07:20:24;53.00;;;34.40;;
17265;SDS011;8749;47.076;15.412;2022-10-16T07:22:51;53.05;;;35.67;;
17265;SDS011;8749;47.076;15.412;2022-10-16T07:25:18;52.92;;;35.45;;
17265;SDS011;8749;47.076;15.412;2022-10-16T07:27:45;51.50;;;35.03;;
17265;SDS011;8749;47.076;15.412;2022-10-16T07:30:12;53.58;;;35.75;;
17265;SDS011;8749;47.076;15.412;2022-10-16T07:32:39;52.53;;;35.45;;
17265;SDS011;8749;47.076;15.412;2022-10-16T07:35:08;51.92;;;35.58;;
17265;SDS011;8749;47.076;15.412;2022-10-16T07:37:35;49.30;;;33.33;;
17265;SDS011;8749;47.076;15.412;2022-10-16T07:40:02;51.90;;;35.58;;
17265;SDS011;8749;47.076;15.412;2022-10-16T07:42:30;269.17;;;163.27;;
17265;SDS011;8749;47.076;15.412;2022-10-16T07:44:57;268.52;;;176.30;;
17265;SDS011;8749;47.076;15.412;2022-10-16T07:47:24;56.45;;;38.20;;
17265;SDS011;8749;47.076;15.412;2022-10-16T07:49:50;49.53;;;34.15;;
17265;SDS011;8749;47.076;15.412;2022-10-16T07:52:19;51.08;;;34.60;;
17265;SDS011;8749;47.076;15.412;2022-10-16T07:54:46;50.92;;;34.40;;
17265;SDS011;8749;47.076;15.412;2022-10-16T07:57:13;54.40;;;35.42;;
17265;SDS011;8749;47.076;15.412;2022-10-16T07:59:44;53.28;;;34.88;;
17265;SDS011;8749;47.076;15.412;2022-10-16T08:02:11;65.47;;;43.38;;
17265;SDS011;8749;47.076;15.412;2022-10-16T08:04:38;62.85;;;40.05;;
17265;SDS011;8749;47.076;15.412;2022-10-16T08:07:06;61.00;;;39.50;;
17265;SDS011;8749;47.076;15.412;2022-10-16T08:09:35;59.67;;;39.33;;
17265;SDS011;8749;47.076;15.412;2022-10-16T08:12:02;64.55;;;41.63;;
17265;SDS011;8749;47.076;15.412;2022-10-16T08:14:30;59.90;;;38.35;;
17265;SDS011;8749;47.076;15.412;2022-10-16T08:16:57;55.38;;;36.00;;
17265;SDS011;8749;47.076;15.412;2022-10-16T08:19:24;261.20;;;153.13;;
17265;SDS011;8749;47.076;15.412;2022-10-16T08:21:51;130.48;;;73.70;;
17265;SDS011;8749;47.076;15.412;2022-10-16T08:24:18;68.90;;;44.83;;
17265;SDS011;8749;47.076;15.412;2022-10-16T08:26:46;73.43;;;44.78;;
17265;SDS011;8749;47.076;15.412;2022-10-16T08:29:13;67.13;;;42.10;;
17265;SDS011;8749;47.076;15.412;2022-10-16T08:31:40;53.58;;;35.95;;
17265;SDS011;8749;47.076;15.412;2022-10-16T08:34:07;51.20;;;34.97;;
17265;SDS011;8749;47.076;15.412;2022-10-16T08:36:34;53.20;;;34.05;;
17265;SDS011;8749;47.076;15.412;2022-10-16T08:39:01;50.50;;;34.00;;
17265;SDS011;8749;47.076;15.412;2022-10-16T08:41:46;54.40;;;36.13;;
17265;SDS011;8749;47.076;15.412;2022-10-16T08:44:40;54.35;;;34.72;;
17265;SDS011;8749;47.076;15.412;2022-10-16T08:47:25;46.60;;;32.35;;
17265;SDS011;8749;47.076;15.412;2022-10-16T08:50:07;48.92;;;31.98;;
17265;SDS011;8749;47.076;15.412;2022-10-16T08:52:39;46.90;;;32.08;;
17265;SDS011;8749;47.076;15.412;2022-10-16T08:55:08;47.35;;;32.00;;
17265;SDS011;8749;47.076;15.412;2022-10-16T08:57:49;45.00;;;31.65;;
17265;SDS011;8749;47.076;15.412;2022-10-16T09:00:16;47.30;;;31.52;;
17265;SDS011;8749;47.076;15.412;2022-10-16T09:02:45;44.35;;;30.65;;
17265;SDS011;8749;47.076;15.412;2022-10-16T09:05:20;45.53;;;30.90;;
17265;SDS011;8749;47.076;15.412;2022-10-16T09:08:04;42.20;;;29.85;;
17265;SDS011;8749;47.076;15.412;2022-10-16T09:10:38;41.30;;;29.15;;
17265;SDS011;8749;47.076;15.412;2022-10-16T09:13:16;41.30;;;29.38;;
17265;SDS011;8749;47.076;15.412;2022-10-16T09:15:48;40.42;;;28.85;;
17265;SDS011;8749;47.076;15.412;2022-10-16T09:18:22;38.58;;;26.67;;
17265;SDS011;8749;47.076;15.412;2022-10-16T09:20:53;40.70;;;27.63;;
17265;SDS011;8749;47.076;15.412;2022-10-16T09:23:25;38.60;;;27.17;;
17265;SDS011;8749;47.076;15.412;2022-10-16T09:25:54;38.85;;;27.25;;
17265;SDS011;8749;47.076;15.412;2022-10-16T09:28:25;35.95;;;26.20;;
17265;SDS011;8749;47.076;15.412;2022-10-16T09:30:52;36.95;;;25.58;;
17265;SDS011;8749;47.076;15.412;2022-10-16T09:33:20;36.72;;;25.50;;
17265;SDS011;8749;47.076;15.412;2022-10-16T09:35:51;42.78;;;28.13;;
17265;SDS011;8749;47.076;15.412;2022-10-16T09:38:21;39.50;;;26.23;;
17265;SDS011;8749;47.076;15.412;2022-10-16T09:40:50;37.45;;;26.00;;
17265;SDS011;8749;47.076;15.412;2022-10-16T09:43:20;35.75;;;23.65;;
17265;SDS011;8749;47.076;15.412;2022-10-16T09:45:57;35.20;;;24.77;;
17265;SDS011;8749;47.076;15.412;2022-10-16T09:48:27;33.85;;;23.98;;
17265;SDS011;8749;47.076;15.412;2022-10-16T09:50:58;33.95;;;23.38;;
17265;SDS011;8749;47.076;15.412;2022-10-16T09:53:36;34.53;;;23.90;;
17265;SDS011;8749;47.076;15.412;2022-10-16T09:56:05;33.38;;;24.48;;
17265;SDS011;8749;47.076;15.412;2022-10-16T09:58:32;31.75;;;22.65;;
17265;SDS011;8749;47.076;15.412;2022-10-16T10:01:01;32.38;;;22.63;;
17265;SDS011;8749;47.076;15.412;2022-10-16T10:03:33;32.15;;;22.80;;
17265;SDS011;8749;47.076;15.412;2022-10-16T10:06:05;30.08;;;22.67;;
17265;SDS011;8749;47.076;15.412;2022-10-16T10:08:52;31.27;;;22.60;;
17265;SDS011;8749;47.076;15.412;2022-10-16T10:17:11;30.38;;;22.15;;
17265;SDS011;8749;47.076;15.412;2022-10-16T10:19:40;30.45;;;21.67;;
17265;SDS011;8749;47.076;15.412;2022-10-16T10:24:57;29.42;;;20.58;;
17265;SDS011;8749;47.076;15.412;2022-10-16T10:27:36;26.85;;;20.50;;
17265;SDS011;8749;47.076;15.412;2022-10-16T10:30:14;26.40;;;19.88;;
17265;SDS011;8749;47.076;15.412;2022-10-16T10:32:48;26.48;;;18.70;;
17265;SDS011;8749;47.076;15.412;2022-10-16T10:35:31;24.77;;;18.73;;
17265;SDS011;8749;47.076;15.412;2022-10-16T10:38:12;23.92;;;18.17;;
17265;SDS011;8749;47.076;15.412;2022-10-16T10:40:52;24.55;;;18.77;;
17265;SDS011;8749;47.076;15.412;2022-10-16T10:43:32;23.90;;;18.38;;
17265;SDS011;8749;47.076;15.412;2022-10-16T10:46:14;24.58;;;17.73;;
17265;SDS011;8749;47.076;15.412;2022-10-16T10:48:54;22.38;;;17.08;;
17265;SDS011;8749;47.076;15.412;2022-10-16T10:51:48;23.27;;;16.75;;
17265;SDS011;8749;47.076;15.412;2022-10-16T10:54:25;23.90;;;18.30;;
17265;SDS011;8749;47.076;15.412;2022-10-16T10:56:58;22.92;;;17.65;;
17265;SDS011;8749;47.076;15.412;2022-10-16T11:02:31;27.10;;;19.98;;
17265;SDS011;8749;47.076;15.412;2022-10-16T11:07:57;22.02;;;15.90;;
17265;SDS011;8749;47.076;15.412;2022-10-16T11:10:27;17.95;;;15.23;;
17265;SDS011;8749;47.076;15.412;2022-10-16T11:13:10;20.45;;;14.93;;
17265;SDS011;8749;47.076;15.412;2022-10-16T11:15:46;18.42;;;15.07;;
17265;SDS011;8749;47.076;15.412;2022-10-16T11:18:16;19.95;;;15.02;;
17265;SDS011;8749;47.076;15.412;2022-10-16T11:20:49;19.83;;;15.00;;
17265;SDS011;8749;47.076;15.412;2022-10-16T11:23:21;17.60;;;14.73;;
17265;SDS011;8749;47.076;15.412;2022-10-16T11:25:52;18.75;;;14.57;;
17265;SDS011;8749;47.076;15.412;2022-10-16T11:28:23;16.52;;;13.88;;
17265;SDS011;8749;47.076;15.412;2022-10-16T11:30:55;15.23;;;13.63;;
17265;SDS011;8749;47.076;15.412;2022-10-16T11:33:27;17.67;;;14.50;;
17265;SDS011;8749;47.076;15.412;2022-10-16T11:36:02;18.95;;;15.95;;
17265;SDS011;8749;47.076;15.412;2022-10-16T11:38:35;29.08;;;21.05;;
17265;SDS011;8749;47.076;15.412;2022-10-16T11:41:10;19.98;;;16.25;;
17265;SDS011;8749;47.076;15.412;2022-10-16T11:43:45;16.20;;;13.80;;
17265;SDS011;8749;47.076;15.412;2022-10-16T11:46:19;15.13;;;13.52;;
17265;SDS011;8749;47.076;15.412;2022-10-16T11:48:50;15.23;;;13.57;;
17265;SDS011;8749;47.076;15.412;2022-10-16T11:51:24;15.65;;;12.85;;
17265;SDS011;8749;47.076;15.412;2022-10-16T11:54:02;14.88;;;12.82;;
17265;SDS011;8749;47.076;15.412;2022-10-16T11:56:35;15.10;;;12.75;;
17265;SDS011;8749;47.076;15.412;2022-10-16T11:59:07;14.77;;;13.18;;
17265;SDS011;8749;47.076;15.412;2022-10-16T12:01:42;14.98;;;13.13;;
17265;SDS011;8749;47.076;15.412;2022-10-16T12:04:19;21.38;;;14.02;;
17265;SDS011;8749;47.076;15.412;2022-10-16T12:06:55;17.75;;;13.20;;
17265;SDS011;8749;47.076;15.412;2022-10-16T12:09:30;15.75;;;12.80;;
17265;SDS011;8749;47.076;15.412;2022-10-16T12:11:58;14.40;;;12.63;;
17265;SDS011;8749;47.076;15.412;2022-10-16T12:14:38;14.93;;;12.75;;
17265;SDS011;8749;47.076;15.412;2022-10-16T12:19:56;14.55;;;12.68;;
17265;SDS011;8749;47.076;15.412;2022-10-16T12:22:27;14.00;;;12.02;;
17265;SDS011;8749;47.076;15.412;2022-10-16T12:24:56;14.35;;;11.82;;
17265;SDS011;8749;47.076;15.412;2022-10-16T12:27:24;13.88;;;12.07;;
17265;SDS011;8749;47.076;15.412;2022-10-16T12:29:55;13.70;;;11.35;;
17265;SDS011;8749;47.076;15.412;2022-10-16T12:32:25;12.10;;;10.73;;
17265;SDS011;8749;47.076;15.412;2022-10-16T12:34:55;11.55;;;10.40;;
